sensor_id;sensor_type;location;lat;lon;timestamp;temperature;humidity
11609;DHT22;5860;52.018;8.536;2023-06-14T00:01:38;17.40;37.30
11609;DHT22;5860;52.018;8.536;2023-06-14T00:04:05;17.30;37.50
11609;DHT22;5860;52.018;8.536;2023-06-14T00:06:32;17.20;38.60
11609;DHT22;5860;52.018;8.536;2023-06-14T00:09:00;17.30;38.70
11609;DHT22;5860;52.018;8.536;2023-06-14T00:11:27;17.20;39.20
11609;DHT22;5860;52.018;8.536;2023-06-14T00:13:54;17.20;40.20
11609;DHT22;5860;52.018;8.536;2023-06-14T00:16:21;17.10;40.30
11609;DHT22;5860;52.018;8.536;2023-06-14T00:18:48;17.10;41.00
11609;DHT22;5860;52.018;8.536;2023-06-14T00:21:15;17.00;41.50
11609;DHT22;5860;52.018;8.536;2023-06-14T00:23:42;17.10;42.10
11609;DHT22;5860;52.018;8.536;2023-06-14T00:26:09;17.20;42.70
11609;DHT22;5860;52.018;8.536;2023-06-14T00:28:36;17.20;43.40
11609;DHT22;5860;52.018;8.536;2023-06-14T00:31:04;17.20;43.30
11609;DHT22;5860;52.018;8.536;2023-06-14T00:33:33;17.10;44.00
11609;DHT22;5860;52.018;8.536;2023-06-14T00:36:00;17.00;44.30
11609;DHT22;5860;52.018;8.536;2023-06-14T00:38:27;17.00;45.00
11609;DHT22;5860;52.018;8.536;2023-06-14T00:43:21;16.90;45.50
11609;DHT22;5860;52.018;8.536;2023-06-14T00:48:16;16.80;47.00
11609;DHT22;5860;52.018;8.536;2023-06-14T00:50:44;16.80;47.60
11609;DHT22;5860;52.018;8.536;2023-06-14T00:53:13;16.80;48.70
11609;DHT22;5860;52.018;8.536;2023-06-14T00:55:41;16.70;48.50
11609;DHT22;5860;52.018;8.536;2023-06-14T00:58:10;16.70;49.00
11609;DHT22;5860;52.018;8.536;2023-06-14T01:00:37;16.60;49.60
11609;DHT22;5860;52.018;8.536;2023-06-14T01:03:04;16.50;50.30
11609;DHT22;5860;52.018;8.536;2023-06-14T01:05:31;16.50;51.10
11609;DHT22;5860;52.018;8.536;2023-06-14T01:11:32;16.50;52.70
11609;DHT22;5860;52.018;8.536;2023-06-14T01:14:02;16.50;53.40
11609;DHT22;5860;52.018;8.536;2023-06-14T01:16:30;16.50;54.00
11609;DHT22;5860;52.018;8.536;2023-06-14T01:18:59;16.50;54.10
11609;DHT22;5860;52.018;8.536;2023-06-14T01:21:26;16.40;54.60
11609;DHT22;5860;52.018;8.536;2023-06-14T01:23:55;16.40;55.50
11609;DHT22;5860;52.018;8.536;2023-06-14T01:26:22;16.40;56.30
11609;DHT22;5860;52.018;8.536;2023-06-14T01:28:50;16.30;57.70
11609;DHT22;5860;52.018;8.536;2023-06-14T01:31:20;16.20;58.30
11609;DHT22;5860;52.018;8.536;2023-06-14T01:33:49;16.20;59.20
11609;DHT22;5860;52.018;8.536;2023-06-14T01:36:19;16.20;60.20
11609;DHT22;5860;52.018;8.536;2023-06-14T01:38:47;16.20;61.20
11609;DHT22;5860;52.018;8.536;2023-06-14T01:41:17;16.20;62.10
11609;DHT22;5860;52.018;8.536;2023-06-14T01:43:45;16.10;63.30
11609;DHT22;5860;52.018;8.536;2023-06-14T01:46:15;16.20;64.10
11609;DHT22;5860;52.018;8.536;2023-06-14T01:48:42;16.10;64.90
11609;DHT22;5860;52.018;8.536;2023-06-14T01:51:09;16.10;65.60
11609;DHT22;5860;52.018;8.536;2023-06-14T01:53:36;16.00;66.20
11609;DHT22;5860;52.018;8.536;2023-06-14T01:56:03;16.00;67.20
11609;DHT22;5860;52.018;8.536;2023-06-14T01:58:30;15.90;67.70
11609;DHT22;5860;52.018;8.536;2023-06-14T02:00:58;15.90;69.00
11609;DHT22;5860;52.018;8.536;2023-06-14T02:03:27;15.90;69.50
11609;DHT22;5860;52.018;8.536;2023-06-14T02:05:54;15.80;69.80
11609;DHT22;5860;52.018;8.536;2023-06-14T02:10:51;15.90;70.90
11609;DHT22;5860;52.018;8.536;2023-06-14T02:13:17;15.80;72.00
11609;DHT22;5860;52.018;8.536;2023-06-14T02:15:44;15.90;73.20
11609;DHT22;5860;52.018;8.536;2023-06-14T02:18:12;15.90;74.10
11609;DHT22;5860;52.018;8.536;2023-06-14T02:20:39;15.80;74.40
11609;DHT22;5860;52.018;8.536;2023-06-14T02:23:06;15.80;75.90
11609;DHT22;5860;52.018;8.536;2023-06-14T02:25:34;15.80;76.80
11609;DHT22;5860;52.018;8.536;2023-06-14T02:28:02;15.70;77.30
11609;DHT22;5860;52.018;8.536;2023-06-14T02:30:29;15.70;79.00
11609;DHT22;5860;52.018;8.536;2023-06-14T02:32:56;15.60;80.00
11609;DHT22;5860;52.018;8.536;2023-06-14T02:35:23;15.70;80.60
11609;DHT22;5860;52.018;8.536;2023-06-14T02:37:53;15.60;80.70
11609;DHT22;5860;52.018;8.536;2023-06-14T02:40:20;15.50;82.40
11609;DHT22;5860;52.018;8.536;2023-06-14T02:42:47;15.50;83.80
11609;DHT22;5860;52.018;8.536;2023-06-14T02:45:14;15.60;84.70
11609;DHT22;5860;52.018;8.536;2023-06-14T02:47:41;15.50;85.20
11609;DHT22;5860;52.018;8.536;2023-06-14T02:50:09;15.50;87.10
11609;DHT22;5860;52.018;8.536;2023-06-14T02:52:36;15.50;88.50
11609;DHT22;5860;52.018;8.536;2023-06-14T02:55:03;15.50;89.50
11609;DHT22;5860;52.018;8.536;2023-06-14T02:57:30;15.50;90.60
11609;DHT22;5860;52.018;8.536;2023-06-14T02:59:57;15.40;91.20
11609;DHT22;5860;52.018;8.536;2023-06-14T03:02:24;15.40;92.20
11609;DHT22;5860;52.018;8.536;2023-06-14T03:04:51;15.30;93.50
11609;DHT22;5860;52.018;8.536;2023-06-14T03:07:18;15.30;94.70
11609;DHT22;5860;52.018;8.536;2023-06-14T03:09:46;15.20;95.90
11609;DHT22;5860;52.018;8.536;2023-06-14T03:12:14;15.20;97.20
11609;DHT22;5860;52.018;8.536;2023-06-14T03:14:41;15.10;98.50
11609;DHT22;5860;52.018;8.536;2023-06-14T03:17:08;15.00;99.90
11609;DHT22;5860;52.018;8.536;2023-06-14T03:19:36;15.00;99.90
11609;DHT22;5860;52.018;8.536;2023-06-14T03:22:04;15.00;99.90
11609;DHT22;5860;52.018;8.536;2023-06-14T03:24:31;15.00;99.90
11609;DHT22;5860;52.018;8.536;2023-06-14T03:27:03;14.90;99.90
11609;DHT22;5860;52.018;8.536;2023-06-14T03:29:30;15.00;99.90
11609;DHT22;5860;52.018;8.536;2023-06-14T03:32:02;15.00;99.90
11609;DHT22;5860;52.018;8.536;2023-06-14T03:34:29;15.10;99.90
11609;DHT22;5860;52.018;8.536;2023-06-14T03:36:56;15.10;99.90
11609;DHT22;5860;52.018;8.536;2023-06-14T03:39:22;15.10;99.90
11609;DHT22;5860;52.018;8.536;2023-06-14T03:41:49;15.10;99.90
11609;DHT22;5860;52.018;8.536;2023-06-14T03:44:17;15.10;99.90
11609;DHT22;5860;52.018;8.536;2023-06-14T03:46:46;15.20;99.90
11609;DHT22;5860;52.018;8.536;2023-06-14T03:49:13;15.30;99.90
11609;DHT22;5860;52.018;8.536;2023-06-14T03:51:40;15.30;99.90
11609;DHT22;5860;52.018;8.536;2023-06-14T03:54:07;15.40;99.90
11609;DHT22;5860;52.018;8.536;2023-06-14T03:56:37;15.90;99.90
11609;DHT22;5860;52.018;8.536;2023-06-14T03:59:04;18.20;99.10
11609;DHT22;5860;52.018;8.536;2023-06-14T04:01:31;19.50;93.10
11609;DHT22;5860;52.018;8.536;2023-06-14T04:04:00;20.50;90.00
11609;DHT22;5860;52.018;8.536;2023-06-14T04:06:28;21.30;80.50
11609;DHT22;5860;52.018;8.536;2023-06-14T04:08:59;21.20;77.20
11609;DHT22;5860;52.018;8.536;2023-06-14T04:11:30;21.70;71.90
11609;DHT22;5860;52.018;8.536;2023-06-14T04:13:59;21.50;67.40
11609;DHT22;5860;52.018;8.536;2023-06-14T04:16:26;22.20;66.00
11609;DHT22;5860;52.018;8.536;2023-06-14T04:18:54;22.60;61.60
11609;DHT22;5860;52.018;8.536;2023-06-14T04:21:21;23.00;61.00
11609;DHT22;5860;52.018;8.536;2023-06-14T04:23:50;23.20;56.60
11609;DHT22;5860;52.018;8.536;2023-06-14T04:26:19;23.40;55.70
11609;DHT22;5860;52.018;8.536;2023-06-14T04:28:49;23.70;53.80
11609;DHT22;5860;52.018;8.536;2023-06-14T04:31:17;24.40;51.40
11609;DHT22;5860;52.018;8.536;2023-06-14T04:33:45;24.20;49.80
11609;DHT22;5860;52.018;8.536;2023-06-14T04:36:13;25.40;48.50
11609;DHT22;5860;52.018;8.536;2023-06-14T04:38:40;24.50;46.30
11609;DHT22;5860;52.018;8.536;2023-06-14T04:41:07;24.30;46.30
11609;DHT22;5860;52.018;8.536;2023-06-14T04:43:38;24.50;43.70
11609;DHT22;5860;52.018;8.536;2023-06-14T04:46:05;23.60;45.10
11609;DHT22;5860;52.018;8.536;2023-06-14T04:48:39;24.40;43.90
11609;DHT22;5860;52.018;8.536;2023-06-14T04:51:08;24.70;43.30
11609;DHT22;5860;52.018;8.536;2023-06-14T04:53:35;24.00;45.20
11609;DHT22;5860;52.018;8.536;2023-06-14T04:56:03;24.20;41.40
11609;DHT22;5860;52.018;8.536;2023-06-14T04:58:30;25.50;41.40
11609;DHT22;5860;52.018;8.536;2023-06-14T05:00:59;24.80;40.00
11609;DHT22;5860;52.018;8.536;2023-06-14T05:03:26;24.60;40.60
11609;DHT22;5860;52.018;8.536;2023-06-14T05:05:54;23.20;38.90
11609;DHT22;5860;52.018;8.536;2023-06-14T05:08:21;22.90;42.20
11609;DHT22;5860;52.018;8.536;2023-06-14T05:10:51;23.80;42.60
11609;DHT22;5860;52.018;8.536;2023-06-14T05:13:18;23.80;40.80
11609;DHT22;5860;52.018;8.536;2023-06-14T05:15:46;23.30;41.20
11609;DHT22;5860;52.018;8.536;2023-06-14T05:18:12;23.40;41.40
11609;DHT22;5860;52.018;8.536;2023-06-14T05:20:40;24.00;40.50
11609;DHT22;5860;52.018;8.536;2023-06-14T05:23:09;24.80;40.10
11609;DHT22;5860;52.018;8.536;2023-06-14T05:25:46;23.60;40.70
11609;DHT22;5860;52.018;8.536;2023-06-14T05:28:13;23.70;41.30
11609;DHT22;5860;52.018;8.536;2023-06-14T05:30:40;24.10;41.70
11609;DHT22;5860;52.018;8.536;2023-06-14T05:33:07;24.50;39.30
11609;DHT22;5860;52.018;8.536;2023-06-14T05:35:34;24.80;40.70
11609;DHT22;5860;52.018;8.536;2023-06-14T05:38:01;25.30;40.60
11609;DHT22;5860;52.018;8.536;2023-06-14T05:40:28;25.00;39.50
11609;DHT22;5860;52.018;8.536;2023-06-14T05:42:55;25.50;38.70
11609;DHT22;5860;52.018;8.536;2023-06-14T05:45:22;24.10;38.70
11609;DHT22;5860;52.018;8.536;2023-06-14T05:47:49;24.00;39.70
11609;DHT22;5860;52.018;8.536;2023-06-14T05:50:17;24.20;41.10
11609;DHT22;5860;52.018;8.536;2023-06-14T05:52:44;23.30;41.60
11609;DHT22;5860;52.018;8.536;2023-06-14T05:55:11;24.00;42.70
11609;DHT22;5860;52.018;8.536;2023-06-14T05:57:39;24.10;42.20
11609;DHT22;5860;52.018;8.536;2023-06-14T06:00:08;23.60;43.00
11609;DHT22;5860;52.018;8.536;2023-06-14T06:02:38;22.90;43.00
11609;DHT22;5860;52.018;8.536;2023-06-14T06:05:05;23.50;42.50
11609;DHT22;5860;52.018;8.536;2023-06-14T06:07:32;23.50;43.30
11609;DHT22;5860;52.018;8.536;2023-06-14T06:10:03;22.50;43.90
11609;DHT22;5860;52.018;8.536;2023-06-14T06:12:30;22.00;45.10
11609;DHT22;5860;52.018;8.536;2023-06-14T06:14:57;21.50;45.10
11609;DHT22;5860;52.018;8.536;2023-06-14T06:17:25;21.80;46.90
11609;DHT22;5860;52.018;8.536;2023-06-14T06:20:01;22.70;45.40
11609;DHT22;5860;52.018;8.536;2023-06-14T06:22:28;22.40;46.20
11609;DHT22;5860;52.018;8.536;2023-06-14T06:24:55;23.00;44.80
11609;DHT22;5860;52.018;8.536;2023-06-14T06:27:22;21.90;46.80
11609;DHT22;5860;52.018;8.536;2023-06-14T06:29:49;22.70;45.90
11609;DHT22;5860;52.018;8.536;2023-06-14T06:32:16;22.10;46.00
11609;DHT22;5860;52.018;8.536;2023-06-14T06:34:43;22.50;45.20
11609;DHT22;5860;52.018;8.536;2023-06-14T06:37:11;22.50;44.40
11609;DHT22;5860;52.018;8.536;2023-06-14T06:39:37;22.30;45.00
11609;DHT22;5860;52.018;8.536;2023-06-14T06:42:04;22.70;42.60
11609;DHT22;5860;52.018;8.536;2023-06-14T06:44:32;22.90;42.40
11609;DHT22;5860;52.018;8.536;2023-06-14T06:46:59;22.80;42.90
11609;DHT22;5860;52.018;8.536;2023-06-14T06:49:26;23.90;41.30
11609;DHT22;5860;52.018;8.536;2023-06-14T06:52:04;22.60;40.90
11609;DHT22;5860;52.018;8.536;2023-06-14T06:54:32;23.40;39.90
11609;DHT22;5860;52.018;8.536;2023-06-14T06:57:00;22.60;42.10
11609;DHT22;5860;52.018;8.536;2023-06-14T06:59:28;22.50;42.50
11609;DHT22;5860;52.018;8.536;2023-06-14T07:01:55;22.60;41.00
11609;DHT22;5860;52.018;8.536;2023-06-14T07:04:23;22.50;43.10
11609;DHT22;5860;52.018;8.536;2023-06-14T07:06:50;23.20;40.10
11609;DHT22;5860;52.018;8.536;2023-06-14T07:09:17;21.20;40.20
11609;DHT22;5860;52.018;8.536;2023-06-14T07:11:44;22.30;41.80
11609;DHT22;5860;52.018;8.536;2023-06-14T07:14:12;22.60;41.80
11609;DHT22;5860;52.018;8.536;2023-06-14T07:16:39;23.00;40.00
11609;DHT22;5860;52.018;8.536;2023-06-14T07:19:06;22.10;40.70
11609;DHT22;5860;52.018;8.536;2023-06-14T07:21:33;22.90;40.50
11609;DHT22;5860;52.018;8.536;2023-06-14T07:24:00;22.00;42.20
11609;DHT22;5860;52.018;8.536;2023-06-14T07:26:27;22.40;41.40
11609;DHT22;5860;52.018;8.536;2023-06-14T07:28:53;21.20;41.50
11609;DHT22;5860;52.018;8.536;2023-06-14T07:31:20;21.60;40.90
11609;DHT22;5860;52.018;8.536;2023-06-14T07:33:47;22.30;42.10
11609;DHT22;5860;52.018;8.536;2023-06-14T07:36:14;20.70;42.00
11609;DHT22;5860;52.018;8.536;2023-06-14T07:38:41;21.60;41.90
11609;DHT22;5860;52.018;8.536;2023-06-14T07:41:09;21.00;43.10
11609;DHT22;5860;52.018;8.536;2023-06-14T07:43:36;21.20;44.80
11609;DHT22;5860;52.018;8.536;2023-06-14T07:46:02;21.20;45.20
11609;DHT22;5860;52.018;8.536;2023-06-14T07:48:33;21.20;46.30
11609;DHT22;5860;52.018;8.536;2023-06-14T07:51:01;22.50;45.10
11609;DHT22;5860;52.018;8.536;2023-06-14T07:53:28;22.10;43.50
11609;DHT22;5860;52.018;8.536;2023-06-14T07:55:55;22.50;43.70
11609;DHT22;5860;52.018;8.536;2023-06-14T07:58:22;20.80;42.80
11609;DHT22;5860;52.018;8.536;2023-06-14T08:00:49;21.10;42.40
11609;DHT22;5860;52.018;8.536;2023-06-14T08:03:16;21.20;42.40
11609;DHT22;5860;52.018;8.536;2023-06-14T08:05:43;21.50;43.30
11609;DHT22;5860;52.018;8.536;2023-06-14T08:08:10;21.60;43.00
11609;DHT22;5860;52.018;8.536;2023-06-14T08:10:37;20.70;44.60
11609;DHT22;5860;52.018;8.536;2023-06-14T08:13:04;21.30;43.70
11609;DHT22;5860;52.018;8.536;2023-06-14T08:15:31;21.20;44.90
11609;DHT22;5860;52.018;8.536;2023-06-14T08:17:58;21.30;43.90
11609;DHT22;5860;52.018;8.536;2023-06-14T08:20:27;21.10;43.40
11609;DHT22;5860;52.018;8.536;2023-06-14T08:22:54;21.00;43.80
11609;DHT22;5860;52.018;8.536;2023-06-14T08:25:23;21.40;43.80
11609;DHT22;5860;52.018;8.536;2023-06-14T08:27:50;20.60;45.10
11609;DHT22;5860;52.018;8.536;2023-06-14T08:30:17;21.10;44.90
11609;DHT22;5860;52.018;8.536;2023-06-14T08:32:44;21.20;46.30
11609;DHT22;5860;52.018;8.536;2023-06-14T08:35:11;21.50;46.00
11609;DHT22;5860;52.018;8.536;2023-06-14T08:37:40;21.40;44.70
11609;DHT22;5860;52.018;8.536;2023-06-14T08:40:20;21.10;45.10
11609;DHT22;5860;52.018;8.536;2023-06-14T08:42:53;21.40;44.20
11609;DHT22;5860;52.018;8.536;2023-06-14T08:45:21;20.50;45.30
11609;DHT22;5860;52.018;8.536;2023-06-14T08:47:53;20.60;47.10
11609;DHT22;5860;52.018;8.536;2023-06-14T08:50:26;20.60;47.40
11609;DHT22;5860;52.018;8.536;2023-06-14T08:52:59;21.30;47.60
11609;DHT22;5860;52.018;8.536;2023-06-14T08:55:31;21.20;46.10
11609;DHT22;5860;52.018;8.536;2023-06-14T08:58:03;21.20;45.40
11609;DHT22;5860;52.018;8.536;2023-06-14T09:00:31;21.30;45.20
11609;DHT22;5860;52.018;8.536;2023-06-14T09:03:00;21.00;46.40
11609;DHT22;5860;52.018;8.536;2023-06-14T09:05:27;20.90;44.90
11609;DHT22;5860;52.018;8.536;2023-06-14T09:07:55;21.20;46.30
11609;DHT22;5860;52.018;8.536;2023-06-14T09:10:31;21.10;46.50
11609;DHT22;5860;52.018;8.536;2023-06-14T09:13:03;21.20;45.80
11609;DHT22;5860;52.018;8.536;2023-06-14T09:15:30;21.50;45.50
11609;DHT22;5860;52.018;8.536;2023-06-14T09:18:01;21.10;46.10
11609;DHT22;5860;52.018;8.536;2023-06-14T09:20:30;21.30;46.20
11609;DHT22;5860;52.018;8.536;2023-06-14T09:22:57;21.00;46.30
11609;DHT22;5860;52.018;8.536;2023-06-14T09:25:24;21.10;45.30
11609;DHT22;5860;52.018;8.536;2023-06-14T09:28:06;21.30;46.00
11609;DHT22;5860;52.018;8.536;2023-06-14T09:30:36;21.70;46.60
11609;DHT22;5860;52.018;8.536;2023-06-14T09:33:03;21.00;44.40
11609;DHT22;5860;52.018;8.536;2023-06-14T09:35:33;21.50;44.50
11609;DHT22;5860;52.018;8.536;2023-06-14T09:38:00;21.10;45.00
11609;DHT22;5860;52.018;8.536;2023-06-14T09:40:27;21.10;45.30
11609;DHT22;5860;52.018;8.536;2023-06-14T09:42:54;21.00;45.60
11609;DHT22;5860;52.018;8.536;2023-06-14T09:45:25;21.10;45.70
11609;DHT22;5860;52.018;8.536;2023-06-14T09:47:57;20.90;45.70
11609;DHT22;5860;52.018;8.536;2023-06-14T09:50:34;21.40;46.10
11609;DHT22;5860;52.018;8.536;2023-06-14T09:53:11;21.90;45.40
11609;DHT22;5860;52.018;8.536;2023-06-14T09:55:41;21.30;44.90
11609;DHT22;5860;52.018;8.536;2023-06-14T09:58:10;21.30;44.70
11609;DHT22;5860;52.018;8.536;2023-06-14T10:00:39;21.20;44.00
11609;DHT22;5860;52.018;8.536;2023-06-14T10:03:16;21.70;44.60
11609;DHT22;5860;52.018;8.536;2023-06-14T10:05:48;22.20;44.70
11609;DHT22;5860;52.018;8.536;2023-06-14T10:08:19;21.70;45.00
11609;DHT22;5860;52.018;8.536;2023-06-14T10:10:46;21.10;45.10
11609;DHT22;5860;52.018;8.536;2023-06-14T10:13:14;22.10;44.60
11609;DHT22;5860;52.018;8.536;2023-06-14T10:21:32;21.40;44.40
11609;DHT22;5860;52.018;8.536;2023-06-14T10:24:04;21.90;43.50
11609;DHT22;5860;52.018;8.536;2023-06-14T10:26:33;21.70;44.20
11609;DHT22;5860;52.018;8.536;2023-06-14T10:29:08;21.70;45.70
11609;DHT22;5860;52.018;8.536;2023-06-14T10:31:48;21.10;45.40
11609;DHT22;5860;52.018;8.536;2023-06-14T10:37:02;21.30;46.00
11609;DHT22;5860;52.018;8.536;2023-06-14T10:39:30;22.00;45.90
11609;DHT22;5860;52.018;8.536;2023-06-14T10:41:57;21.80;45.50
11609;DHT22;5860;52.018;8.536;2023-06-14T10:46:55;22.00;45.50
11609;DHT22;5860;52.018;8.536;2023-06-14T10:49:41;21.50;44.50
11609;DHT22;5860;52.018;8.536;2023-06-14T10:52:14;22.30;42.90
11609;DHT22;5860;52.018;8.536;2023-06-14T10:55:16;22.10;42.10
11609;DHT22;5860;52.018;8.536;2023-06-14T10:57:53;21.90;42.30
11609;DHT22;5860;52.018;8.536;2023-06-14T11:00:27;21.80;41.50
11609;DHT22;5860;52.018;8.536;2023-06-14T11:05:55;22.50;42.30
11609;DHT22;5860;52.018;8.536;2023-06-14T11:11:08;21.70;42.20
11609;DHT22;5860;52.018;8.536;2023-06-14T11:13:41;21.80;43.40
11609;DHT22;5860;52.018;8.536;2023-06-14T11:16:15;21.70;42.20
11609;DHT22;5860;52.018;8.536;2023-06-14T11:18:44;21.60;41.50
11609;DHT22;5860;52.018;8.536;2023-06-14T11:21:18;21.50;40.80
11609;DHT22;5860;52.018;8.536;2023-06-14T11:23:52;21.20;42.00
11609;DHT22;5860;52.018;8.536;2023-06-14T11:26:30;21.30;42.80
11609;DHT22;5860;52.018;8.536;2023-06-14T11:28:59;21.70;43.60
11609;DHT22;5860;52.018;8.536;2023-06-14T11:31:27;21.70;39.50
11609;DHT22;5860;52.018;8.536;2023-06-14T11:33:59;21.30;40.00
11609;DHT22;5860;52.018;8.536;2023-06-14T11:36:31;21.70;39.60
11609;DHT22;5860;52.018;8.536;2023-06-14T11:39:06;21.70;40.40
11609;DHT22;5860;52.018;8.536;2023-06-14T11:41:43;21.80;39.60
11609;DHT22;5860;52.018;8.536;2023-06-14T11:44:11;21.90;39.70
11609;DHT22;5860;52.018;8.536;2023-06-14T11:46:39;21.90;40.30
11609;DHT22;5860;52.018;8.536;2023-06-14T11:49:07;21.90;41.20
11609;DHT22;5860;52.018;8.536;2023-06-14T11:51:36;22.20;41.10
11609;DHT22;5860;52.018;8.536;2023-06-14T11:54:06;22.70;40.20
11609;DHT22;5860;52.018;8.536;2023-06-14T11:56:33;22.60;39.40
11609;DHT22;5860;52.018;8.536;2023-06-14T11:59:02;22.40;39.00
11609;DHT22;5860;52.018;8.536;2023-06-14T12:01:30;22.10;39.60
11609;DHT22;5860;52.018;8.536;2023-06-14T12:03:59;22.30;41.60
11609;DHT22;5860;52.018;8.536;2023-06-14T12:06:28;22.30;41.40
11609;DHT22;5860;52.018;8.536;2023-06-14T12:08:56;22.50;42.30
11609;DHT22;5860;52.018;8.536;2023-06-14T12:11:24;21.90;42.00
11609;DHT22;5860;52.018;8.536;2023-06-14T12:13:56;22.10;41.80
11609;DHT22;5860;52.018;8.536;2023-06-14T12:16:33;22.20;40.40
11609;DHT22;5860;52.018;8.536;2023-06-14T12:19:16;22.30;39.70
11609;DHT22;5860;52.018;8.536;2023-06-14T12:21:47;22.00;39.40
11609;DHT22;5860;52.018;8.536;2023-06-14T12:24:16;22.60;39.70
11609;DHT22;5860;52.018;8.536;2023-06-14T12:26:43;22.50;39.50
11609;DHT22;5860;52.018;8.536;2023-06-14T12:29:10;23.10;39.90
11609;DHT22;5860;52.018;8.536;2023-06-14T12:31:40;23.10;40.30
11609;DHT22;5860;52.018;8.536;2023-06-14T12:34:07;23.20;38.40
11609;DHT22;5860;52.018;8.536;2023-06-14T12:36:35;23.00;38.80
11609;DHT22;5860;52.018;8.536;2023-06-14T12:39:08;22.80;38.70
11609;DHT22;5860;52.018;8.536;2023-06-14T12:41:35;22.60;39.70
11609;DHT22;5860;52.018;8.536;2023-06-14T12:44:04;23.50;40.30
11609;DHT22;5860;52.018;8.536;2023-06-14T12:46:31;23.10;38.70
11609;DHT22;5860;52.018;8.536;2023-06-14T12:48:59;22.70;39.30
11609;DHT22;5860;52.018;8.536;2023-06-14T12:51:26;22.30;39.80
11609;DHT22;5860;52.018;8.536;2023-06-14T12:53:53;22.60;40.00
11609;DHT22;5860;52.018;8.536;2023-06-14T12:56:20;23.00;39.40
11609;DHT22;5860;52.018;8.536;2023-06-14T12:58:50;23.30;39.70
11609;DHT22;5860;52.018;8.536;2023-06-14T13:01:18;23.60;39.20
11609;DHT22;5860;52.018;8.536;2023-06-14T13:03:46;22.80;37.80
11609;DHT22;5860;52.018;8.536;2023-06-14T13:06:13;22.90;38.80
11609;DHT22;5860;52.018;8.536;2023-06-14T13:08:40;23.10;37.70
11609;DHT22;5860;52.018;8.536;2023-06-14T13:11:07;22.70;38.40
11609;DHT22;5860;52.018;8.536;2023-06-14T13:13:34;23.30;38.50
11609;DHT22;5860;52.018;8.536;2023-06-14T13:16:02;23.40;38.00
11609;DHT22;5860;52.018;8.536;2023-06-14T13:18:29;23.20;37.30
11609;DHT22;5860;52.018;8.536;2023-06-14T13:20:56;23.50;38.30
11609;DHT22;5860;52.018;8.536;2023-06-14T13:23:23;23.40;38.70
11609;DHT22;5860;52.018;8.536;2023-06-14T13:25:50;23.10;38.30
11609;DHT22;5860;52.018;8.536;2023-06-14T13:28:17;22.80;38.40
11609;DHT22;5860;52.018;8.536;2023-06-14T13:30:44;23.00;38.90
11609;DHT22;5860;52.018;8.536;2023-06-14T13:33:13;23.60;38.00
11609;DHT22;5860;52.018;8.536;2023-06-14T13:35:41;23.50;37.00
11609;DHT22;5860;52.018;8.536;2023-06-14T13:38:09;23.90;37.30
11609;DHT22;5860;52.018;8.536;2023-06-14T13:40:37;23.70;36.80
11609;DHT22;5860;52.018;8.536;2023-06-14T13:43:05;23.50;37.10
11609;DHT22;5860;52.018;8.536;2023-06-14T13:45:32;22.80;40.80
11609;DHT22;5860;52.018;8.536;2023-06-14T13:47:59;22.50;41.00
11609;DHT22;5860;52.018;8.536;2023-06-14T13:50:26;22.40;41.10
11609;DHT22;5860;52.018;8.536;2023-06-14T13:52:53;22.40;41.00
11609;DHT22;5860;52.018;8.536;2023-06-14T13:55:20;22.90;40.90
11609;DHT22;5860;52.018;8.536;2023-06-14T13:57:47;23.40;40.20
11609;DHT22;5860;52.018;8.536;2023-06-14T14:00:14;23.10;40.10
11609;DHT22;5860;52.018;8.536;2023-06-14T14:02:41;23.00;38.90
11609;DHT22;5860;52.018;8.536;2023-06-14T14:05:09;23.30;38.50
11609;DHT22;5860;52.018;8.536;2023-06-14T14:07:36;23.20;37.80
11609;DHT22;5860;52.018;8.536;2023-06-14T14:10:04;23.40;38.40
11609;DHT22;5860;52.018;8.536;2023-06-14T14:12:31;23.70;38.50
11609;DHT22;5860;52.018;8.536;2023-06-14T14:14:58;24.30;38.70
11609;DHT22;5860;52.018;8.536;2023-06-14T14:17:24;24.20;38.00
11609;DHT22;5860;52.018;8.536;2023-06-14T14:19:52;23.60;37.60
11609;DHT22;5860;52.018;8.536;2023-06-14T14:22:18;23.20;38.60
11609;DHT22;5860;52.018;8.536;2023-06-14T14:24:45;22.60;39.50
11609;DHT22;5860;52.018;8.536;2023-06-14T14:27:13;22.50;39.90
11609;DHT22;5860;52.018;8.536;2023-06-14T14:29:40;22.30;40.70
11609;DHT22;5860;52.018;8.536;2023-06-14T14:32:07;22.50;41.20
11609;DHT22;5860;52.018;8.536;2023-06-14T14:34:34;22.90;41.10
11609;DHT22;5860;52.018;8.536;2023-06-14T14:37:01;23.40;41.60
11609;DHT22;5860;52.018;8.536;2023-06-14T14:39:28;23.40;40.60
11609;DHT22;5860;52.018;8.536;2023-06-14T14:41:56;23.30;41.50
11609;DHT22;5860;52.018;8.536;2023-06-14T14:44:23;23.10;39.60
11609;DHT22;5860;52.018;8.536;2023-06-14T14:46:50;22.80;39.40
11609;DHT22;5860;52.018;8.536;2023-06-14T14:49:17;22.50;40.40
11609;DHT22;5860;52.018;8.536;2023-06-14T14:51:44;22.50;39.70
11609;DHT22;5860;52.018;8.536;2023-06-14T14:54:11;22.70;39.50
11609;DHT22;5860;52.018;8.536;2023-06-14T14:56:38;22.90;39.60
11609;DHT22;5860;52.018;8.536;2023-06-14T14:59:05;22.80;39.10
11609;DHT22;5860;52.018;8.536;2023-06-14T15:01:32;23.00;39.10
11609;DHT22;5860;52.018;8.536;2023-06-14T15:04:00;23.20;39.40
11609;DHT22;5860;52.018;8.536;2023-06-14T15:06:27;23.50;38.10
11609;DHT22;5860;52.018;8.536;2023-06-14T15:08:54;23.50;38.00
11609;DHT22;5860;52.018;8.536;2023-06-14T15:11:22;23.70;38.50
11609;DHT22;5860;52.018;8.536;2023-06-14T15:13:49;23.20;37.80
11609;DHT22;5860;52.018;8.536;2023-06-14T15:16:16;23.40;39.50
11609;DHT22;5860;52.018;8.536;2023-06-14T15:18:43;23.60;39.60
11609;DHT22;5860;52.018;8.536;2023-06-14T15:21:10;23.60;39.90
11609;DHT22;5860;52.018;8.536;2023-06-14T15:23:37;23.60;40.80
11609;DHT22;5860;52.018;8.536;2023-06-14T15:26:04;23.30;41.70
11609;DHT22;5860;52.018;8.536;2023-06-14T15:28:31;23.40;41.70
11609;DHT22;5860;52.018;8.536;2023-06-14T15:30:59;23.30;41.60
11609;DHT22;5860;52.018;8.536;2023-06-14T15:33:27;23.10;41.70
11609;DHT22;5860;52.018;8.536;2023-06-14T15:35:54;23.00;41.70
11609;DHT22;5860;52.018;8.536;2023-06-14T15:38:21;22.90;42.20
11609;DHT22;5860;52.018;8.536;2023-06-14T15:40:49;23.10;42.40
11609;DHT22;5860;52.018;8.536;2023-06-14T15:43:17;23.10;42.30
11609;DHT22;5860;52.018;8.536;2023-06-14T15:45:45;23.30;42.60
11609;DHT22;5860;52.018;8.536;2023-06-14T15:48:12;23.20;42.90
11609;DHT22;5860;52.018;8.536;2023-06-14T15:50:38;23.10;43.10
11609;DHT22;5860;52.018;8.536;2023-06-14T15:53:06;23.20;43.10
11609;DHT22;5860;52.018;8.536;2023-06-14T15:55:32;23.20;42.40
11609;DHT22;5860;52.018;8.536;2023-06-14T15:57:59;23.60;42.60
11609;DHT22;5860;52.018;8.536;2023-06-14T16:00:26;23.40;43.50
11609;DHT22;5860;52.018;8.536;2023-06-14T16:02:53;23.60;43.50
11609;DHT22;5860;52.018;8.536;2023-06-14T16:05:20;23.50;43.20
11609;DHT22;5860;52.018;8.536;2023-06-14T16:07:47;23.80;43.20
11609;DHT22;5860;52.018;8.536;2023-06-14T16:10:14;23.70;42.80
11609;DHT22;5860;52.018;8.536;2023-06-14T16:12:42;23.50;42.50
11609;DHT22;5860;52.018;8.536;2023-06-14T16:15:09;23.90;42.70
11609;DHT22;5860;52.018;8.536;2023-06-14T16:17:36;23.80;42.10
11609;DHT22;5860;52.018;8.536;2023-06-14T16:20:03;23.60;41.80